sensor_id;sensor_type;location;lat;lon;timestamp;P1;durP1;ratioP1;P2;durP2;ratioP2
66603;SDS011;53460;39.612;8.822;2023-06-22T06:33:05;9.52;;;2.97;;
66603;SDS011;53460;39.612;8.822;2023-06-22T06:35:34;11.80;;;2.75;;
66603;SDS011;53460;39.612;8.822;2023-06-22T06:37:59;6.15;;;2.97;;
66603;SDS011;53460;39.612;8.822;2023-06-22T06:40:25;12.75;;;2.85;;
66603;SDS011;53460;39.612;8.822;2023-06-22T06:42:50;8.07;;;2.60;;
66603;SDS011;53460;39.612;8.822;2023-06-22T06:45:22;7.25;;;2.70;;
66603;SDS011;53460;39.612;8.822;2023-06-22T06:47:49;12.95;;;2.80;;
66603;SDS011;53460;39.612;8.822;2023-06-22T06:50:14;6.05;;;2.70;;
66603;SDS011;53460;39.612;8.822;2023-06-22T06:52:40;9.48;;;2.85;;
66603;SDS011;53460;39.612;8.822;2023-06-22T06:55:07;9.10;;;2.50;;
66603;SDS011;53460;39.612;8.822;2023-06-22T06:57:34;7.90;;;2.53;;
66603;SDS011;53460;39.612;8.822;2023-06-22T07:00:00;10.07;;;3.00;;
66603;SDS011;53460;39.612;8.822;2023-06-22T07:02:26;10.45;;;2.70;;
66603;SDS011;53460;39.612;8.822;2023-06-22T07:04:53;7.88;;;2.97;;
66603;SDS011;53460;39.612;8.822;2023-06-22T07:07:20;5.55;;;2.75;;
66603;SDS011;53460;39.612;8.822;2023-06-22T07:09:46;7.80;;;3.25;;
66603;SDS011;53460;39.612;8.822;2023-06-22T07:12:11;7.68;;;2.95;;
66603;SDS011;53460;39.612;8.822;2023-06-22T07:14:37;7.07;;;3.10;;
66603;SDS011;53460;39.612;8.822;2023-06-22T07:17:02;6.78;;;2.95;;
66603;SDS011;53460;39.612;8.822;2023-06-22T07:19:28;8.85;;;2.80;;
66603;SDS011;53460;39.612;8.822;2023-06-22T07:21:56;7.50;;;2.83;;
66603;SDS011;53460;39.612;8.822;2023-06-22T07:24:33;11.23;;;3.25;;
66603;SDS011;53460;39.612;8.822;2023-06-22T07:26:59;10.23;;;2.88;;
66603;SDS011;53460;39.612;8.822;2023-06-22T07:29:25;13.82;;;3.03;;
66603;SDS011;53460;39.612;8.822;2023-06-22T07:31:52;9.35;;;2.72;;
66603;SDS011;53460;39.612;8.822;2023-06-22T07:34:17;9.80;;;3.25;;
66603;SDS011;53460;39.612;8.822;2023-06-22T07:36:43;23.23;;;3.80;;
66603;SDS011;53460;39.612;8.822;2023-06-22T07:39:09;8.77;;;2.90;;
66603;SDS011;53460;39.612;8.822;2023-06-22T07:41:34;9.43;;;3.15;;
66603;SDS011;53460;39.612;8.822;2023-06-22T07:44:02;7.68;;;2.70;;
66603;SDS011;53460;39.612;8.822;2023-06-22T07:46:28;7.65;;;3.22;;
66603;SDS011;53460;39.612;8.822;2023-06-22T07:48:55;10.05;;;3.20;;
66603;SDS011;53460;39.612;8.822;2023-06-22T07:51:21;10.68;;;3.30;;
66603;SDS011;53460;39.612;8.822;2023-06-22T07:53:46;17.77;;;3.38;;
66603;SDS011;53460;39.612;8.822;2023-06-22T07:56:12;6.85;;;2.83;;
66603;SDS011;53460;39.612;8.822;2023-06-22T07:58:38;5.45;;;2.80;;
66603;SDS011;53460;39.612;8.822;2023-06-22T08:01:03;8.52;;;3.78;;
66603;SDS011;53460;39.612;8.822;2023-06-22T08:03:29;5.75;;;2.88;;
66603;SDS011;53460;39.612;8.822;2023-06-22T08:05:55;6.65;;;2.90;;
66603;SDS011;53460;39.612;8.822;2023-06-22T08:08:20;10.43;;;3.17;;
66603;SDS011;53460;39.612;8.822;2023-06-22T08:10:46;8.38;;;2.60;;
66603;SDS011;53460;39.612;8.822;2023-06-22T08:13:11;9.85;;;3.15;;
66603;SDS011;53460;39.612;8.822;2023-06-22T08:15:37;12.05;;;2.90;;
66603;SDS011;53460;39.612;8.822;2023-06-22T08:18:02;14.77;;;2.53;;
66603;SDS011;53460;39.612;8.822;2023-06-22T08:20:28;9.50;;;2.97;;
66603;SDS011;53460;39.612;8.822;2023-06-22T08:22:54;7.53;;;2.70;;
66603;SDS011;53460;39.612;8.822;2023-06-22T08:25:20;12.35;;;2.90;;
66603;SDS011;53460;39.612;8.822;2023-06-22T08:27:46;12.68;;;2.45;;
66603;SDS011;53460;39.612;8.822;2023-06-22T08:30:15;8.73;;;2.55;;
66603;SDS011;53460;39.612;8.822;2023-06-22T08:32:41;12.57;;;3.17;;
66603;SDS011;53460;39.612;8.822;2023-06-22T08:35:07;8.25;;;2.88;;
66603;SDS011;53460;39.612;8.822;2023-06-22T08:37:36;7.80;;;3.13;;
66603;SDS011;53460;39.612;8.822;2023-06-22T08:40:02;10.10;;;2.78;;
66603;SDS011;53460;39.612;8.822;2023-06-22T08:42:33;8.63;;;3.42;;
66603;SDS011;53460;39.612;8.822;2023-06-22T08:44:58;9.65;;;2.85;;
66603;SDS011;53460;39.612;8.822;2023-06-22T08:47:24;11.55;;;2.83;;
66603;SDS011;53460;39.612;8.822;2023-06-22T08:49:49;10.02;;;3.10;;
66603;SDS011;53460;39.612;8.822;2023-06-22T08:52:15;8.95;;;2.92;;
66603;SDS011;53460;39.612;8.822;2023-06-22T08:54:40;10.07;;;2.83;;
66603;SDS011;53460;39.612;8.822;2023-06-22T08:57:06;11.93;;;2.80;;
66603;SDS011;53460;39.612;8.822;2023-06-22T08:59:31;21.17;;;3.30;;
66603;SDS011;53460;39.612;8.822;2023-06-22T09:01:57;12.48;;;3.03;;
66603;SDS011;53460;39.612;8.822;2023-06-22T09:04:22;10.18;;;3.70;;
66603;SDS011;53460;39.612;8.822;2023-06-22T09:06:48;8.10;;;3.45;;
66603;SDS011;53460;39.612;8.822;2023-06-22T09:09:15;10.73;;;3.50;;
66603;SDS011;53460;39.612;8.822;2023-06-22T09:11:41;14.43;;;3.58;;
66603;SDS011;53460;39.612;8.822;2023-06-22T09:14:07;13.02;;;3.17;;
66603;SDS011;53460;39.612;8.822;2023-06-22T09:16:33;16.02;;;3.45;;
66603;SDS011;53460;39.612;8.822;2023-06-22T09:18:59;15.25;;;3.45;;
66603;SDS011;53460;39.612;8.822;2023-06-22T09:21:24;17.42;;;3.33;;
66603;SDS011;53460;39.612;8.822;2023-06-22T09:23:50;12.52;;;3.42;;
66603;SDS011;53460;39.612;8.822;2023-06-22T09:26:17;11.02;;;3.33;;
66603;SDS011;53460;39.612;8.822;2023-06-22T09:28:42;11.90;;;3.28;;
66603;SDS011;53460;39.612;8.822;2023-06-22T09:31:08;6.43;;;3.00;;
66603;SDS011;53460;39.612;8.822;2023-06-22T09:33:33;14.65;;;3.65;;
66603;SDS011;53460;39.612;8.822;2023-06-22T09:35:58;15.45;;;4.07;;
66603;SDS011;53460;39.612;8.822;2023-06-22T09:38:24;10.73;;;3.63;;
66603;SDS011;53460;39.612;8.822;2023-06-22T09:40:49;12.65;;;3.67;;
66603;SDS011;53460;39.612;8.822;2023-06-22T09:43:15;13.43;;;3.90;;
66603;SDS011;53460;39.612;8.822;2023-06-22T09:45:40;15.75;;;3.90;;
66603;SDS011;53460;39.612;8.822;2023-06-22T09:48:06;12.32;;;3.45;;
66603;SDS011;53460;39.612;8.822;2023-06-22T09:50:31;13.25;;;3.50;;
66603;SDS011;53460;39.612;8.822;2023-06-22T09:52:57;16.42;;;4.07;;
66603;SDS011;53460;39.612;8.822;2023-06-22T09:55:22;9.90;;;3.30;;
66603;SDS011;53460;39.612;8.822;2023-06-22T09:57:48;12.77;;;3.70;;
66603;SDS011;53460;39.612;8.822;2023-06-22T10:00:15;10.77;;;3.80;;
66603;SDS011;53460;39.612;8.822;2023-06-22T10:02:42;18.00;;;3.90;;
66603;SDS011;53460;39.612;8.822;2023-06-22T10:05:08;13.15;;;3.70;;
66603;SDS011;53460;39.612;8.822;2023-06-22T10:07:33;16.65;;;3.38;;
66603;SDS011;53460;39.612;8.822;2023-06-22T10:09:59;12.30;;;3.35;;
66603;SDS011;53460;39.612;8.822;2023-06-22T10:12:25;16.65;;;4.10;;
66603;SDS011;53460;39.612;8.822;2023-06-22T10:14:50;14.85;;;3.80;;
66603;SDS011;53460;39.612;8.822;2023-06-22T10:17:16;13.88;;;3.85;;
66603;SDS011;53460;39.612;8.822;2023-06-22T10:19:41;11.85;;;4.00;;
66603;SDS011;53460;39.612;8.822;2023-06-22T10:22:07;18.50;;;4.15;;
66603;SDS011;53460;39.612;8.822;2023-06-22T10:24:32;15.02;;;4.13;;
66603;SDS011;53460;39.612;8.822;2023-06-22T10:26:58;11.50;;;4.40;;
66603;SDS011;53460;39.612;8.822;2023-06-22T10:29:23;11.40;;;3.78;;
66603;SDS011;53460;39.612;8.822;2023-06-22T10:31:49;18.58;;;4.03;;
66603;SDS011;53460;39.612;8.822;2023-06-22T10:34:14;12.38;;;4.25;;
66603;SDS011;53460;39.612;8.822;2023-06-22T10:36:40;14.90;;;4.00;;
66603;SDS011;53460;39.612;8.822;2023-06-22T10:39:05;18.85;;;4.72;;
66603;SDS011;53460;39.612;8.822;2023-06-22T10:41:31;18.33;;;4.32;;
66603;SDS011;53460;39.612;8.822;2023-06-22T10:43:56;22.30;;;4.00;;
66603;SDS011;53460;39.612;8.822;2023-06-22T10:46:23;23.75;;;4.70;;
66603;SDS011;53460;39.612;8.822;2023-06-22T10:48:49;18.85;;;3.47;;
66603;SDS011;53460;39.612;8.822;2023-06-22T10:51:14;15.05;;;4.38;;
66603;SDS011;53460;39.612;8.822;2023-06-22T10:53:40;22.08;;;4.88;;
66603;SDS011;53460;39.612;8.822;2023-06-22T10:56:06;22.35;;;4.32;;
66603;SDS011;53460;39.612;8.822;2023-06-22T10:58:31;16.27;;;3.78;;
66603;SDS011;53460;39.612;8.822;2023-06-22T11:00:57;16.88;;;4.20;;
66603;SDS011;53460;39.612;8.822;2023-06-22T11:03:24;20.92;;;4.85;;
66603;SDS011;53460;39.612;8.822;2023-06-22T11:05:49;16.23;;;4.65;;
66603;SDS011;53460;39.612;8.822;2023-06-22T11:08:15;26.83;;;3.92;;
66603;SDS011;53460;39.612;8.822;2023-06-22T11:10:40;13.45;;;3.25;;
66603;SDS011;53460;39.612;8.822;2023-06-22T11:13:06;17.23;;;4.10;;
66603;SDS011;53460;39.612;8.822;2023-06-22T11:15:35;18.25;;;3.67;;
66603;SDS011;53460;39.612;8.822;2023-06-22T11:18:00;24.58;;;4.05;;
66603;SDS011;53460;39.612;8.822;2023-06-22T11:20:26;21.20;;;4.35;;
66603;SDS011;53460;39.612;8.822;2023-06-22T11:22:51;15.02;;;4.15;;
66603;SDS011;53460;39.612;8.822;2023-06-22T11:25:17;13.98;;;3.47;;
66603;SDS011;53460;39.612;8.822;2023-06-22T11:27:42;31.10;;;5.45;;
66603;SDS011;53460;39.612;8.822;2023-06-22T11:30:08;22.63;;;4.00;;
66603;SDS011;53460;39.612;8.822;2023-06-22T11:32:34;19.75;;;4.15;;
66603;SDS011;53460;39.612;8.822;2023-06-22T11:34:59;49.80;;;5.53;;
66603;SDS011;53460;39.612;8.822;2023-06-22T11:37:25;15.15;;;3.65;;
66603;SDS011;53460;39.612;8.822;2023-06-22T11:39:51;16.42;;;4.50;;
66603;SDS011;53460;39.612;8.822;2023-06-22T11:42:17;23.00;;;4.50;;
66603;SDS011;53460;39.612;8.822;2023-06-22T11:44:42;15.90;;;3.63;;
66603;SDS011;53460;39.612;8.822;2023-06-22T11:47:09;20.60;;;4.50;;
66603;SDS011;53460;39.612;8.822;2023-06-22T11:49:34;14.43;;;4.10;;
66603;SDS011;53460;39.612;8.822;2023-06-22T11:52:00;19.77;;;4.20;;
66603;SDS011;53460;39.612;8.822;2023-06-22T11:54:25;17.90;;;4.45;;
66603;SDS011;53460;39.612;8.822;2023-06-22T11:56:50;14.35;;;4.10;;
66603;SDS011;53460;39.612;8.822;2023-06-22T11:59:16;15.20;;;4.80;;
66603;SDS011;53460;39.612;8.822;2023-06-22T12:01:41;15.88;;;4.20;;
66603;SDS011;53460;39.612;8.822;2023-06-22T12:04:07;23.98;;;3.78;;
66603;SDS011;53460;39.612;8.822;2023-06-22T12:06:37;15.43;;;3.83;;
66603;SDS011;53460;39.612;8.822;2023-06-22T12:09:03;15.75;;;3.95;;
66603;SDS011;53460;39.612;8.822;2023-06-22T12:11:30;16.05;;;4.22;;
66603;SDS011;53460;39.612;8.822;2023-06-22T12:13:55;17.08;;;4.40;;
66603;SDS011;53460;39.612;8.822;2023-06-22T12:16:21;13.52;;;3.42;;
66603;SDS011;53460;39.612;8.822;2023-06-22T12:18:47;11.93;;;4.28;;
66603;SDS011;53460;39.612;8.822;2023-06-22T12:21:12;17.20;;;4.68;;
66603;SDS011;53460;39.612;8.822;2023-06-22T12:23:38;16.92;;;4.55;;
66603;SDS011;53460;39.612;8.822;2023-06-22T12:26:03;17.60;;;4.00;;
66603;SDS011;53460;39.612;8.822;2023-06-22T12:28:29;18.38;;;4.50;;
66603;SDS011;53460;39.612;8.822;2023-06-22T12:30:54;16.17;;;4.13;;
66603;SDS011;53460;39.612;8.822;2023-06-22T12:33:20;20.15;;;4.85;;
66603;SDS011;53460;39.612;8.822;2023-06-22T12:35:45;16.95;;;4.70;;
66603;SDS011;53460;39.612;8.822;2023-06-22T12:38:11;13.05;;;4.07;;
66603;SDS011;53460;39.612;8.822;2023-06-22T12:40:36;12.18;;;3.67;;
66603;SDS011;53460;39.612;8.822;2023-06-22T12:43:02;18.55;;;4.38;;
66603;SDS011;53460;39.612;8.822;2023-06-22T12:45:27;17.30;;;3.83;;
66603;SDS011;53460;39.612;8.822;2023-06-22T12:47:56;17.95;;;3.97;;
66603;SDS011;53460;39.612;8.822;2023-06-22T12:50:22;12.13;;;3.53;;
66603;SDS011;53460;39.612;8.822;2023-06-22T12:52:47;11.68;;;3.70;;
66603;SDS011;53460;39.612;8.822;2023-06-22T12:55:13;16.02;;;4.10;;
66603;SDS011;53460;39.612;8.822;2023-06-22T12:57:38;15.02;;;3.90;;
66603;SDS011;53460;39.612;8.822;2023-06-22T13:00:04;14.40;;;4.13;;
66603;SDS011;53460;39.612;8.822;2023-06-22T13:02:30;15.25;;;4.00;;
66603;SDS011;53460;39.612;8.822;2023-06-22T13:04:56;21.48;;;4.28;;
66603;SDS011;53460;39.612;8.822;2023-06-22T13:07:21;16.27;;;4.00;;
66603;SDS011;53460;39.612;8.822;2023-06-22T13:09:47;21.02;;;4.38;;
66603;SDS011;53460;39.612;8.822;2023-06-22T13:12:16;14.98;;;3.90;;
66603;SDS011;53460;39.612;8.822;2023-06-22T13:14:42;15.85;;;4.00;;
66603;SDS011;53460;39.612;8.822;2023-06-22T13:17:08;15.50;;;3.95;;
66603;SDS011;53460;39.612;8.822;2023-06-22T13:19:33;18.33;;;4.20;;
66603;SDS011;53460;39.612;8.822;2023-06-22T13:21:59;15.00;;;3.78;;
66603;SDS011;53460;39.612;8.822;2023-06-22T13:24:25;14.80;;;3.97;;
66603;SDS011;53460;39.612;8.822;2023-06-22T13:26:50;13.70;;;3.70;;
66603;SDS011;53460;39.612;8.822;2023-06-22T13:29:16;12.27;;;3.88;;
66603;SDS011;53460;39.612;8.822;2023-06-22T13:31:41;14.98;;;4.13;;
66603;SDS011;53460;39.612;8.822;2023-06-22T13:34:07;13.30;;;3.97;;
66603;SDS011;53460;39.612;8.822;2023-06-22T13:36:32;13.75;;;4.05;;
66603;SDS011;53460;39.612;8.822;2023-06-22T13:38:58;9.85;;;3.65;;
66603;SDS011;53460;39.612;8.822;2023-06-22T13:41:24;13.02;;;4.15;;
66603;SDS011;53460;39.612;8.822;2023-06-22T13:43:49;13.90;;;4.28;;
66603;SDS011;53460;39.612;8.822;2023-06-22T13:46:15;15.95;;;4.15;;
66603;SDS011;53460;39.612;8.822;2023-06-22T13:48:40;13.85;;;3.83;;
66603;SDS011;53460;39.612;8.822;2023-06-22T13:51:06;10.70;;;3.65;;
66603;SDS011;53460;39.612;8.822;2023-06-22T13:53:31;13.63;;;4.00;;
66603;SDS011;53460;39.612;8.822;2023-06-22T13:55:57;17.83;;;4.70;;
66603;SDS011;53460;39.612;8.822;2023-06-22T13:58:22;23.48;;;4.57;;
66603;SDS011;53460;39.612;8.822;2023-06-22T14:00:48;11.20;;;3.80;;
66603;SDS011;53460;39.612;8.822;2023-06-22T14:03:14;14.73;;;5.13;;
66603;SDS011;53460;39.612;8.822;2023-06-22T14:05:42;10.88;;;4.22;;
66603;SDS011;53460;39.612;8.822;2023-06-22T14:08:07;17.38;;;4.20;;
66603;SDS011;53460;39.612;8.822;2023-06-22T14:10:33;19.33;;;4.60;;
66603;SDS011;53460;39.612;8.822;2023-06-22T14:12:58;13.02;;;3.50;;
66603;SDS011;53460;39.612;8.822;2023-06-22T14:15:25;9.88;;;4.03;;
66603;SDS011;53460;39.612;8.822;2023-06-22T14:17:51;18.73;;;4.45;;
66603;SDS011;53460;39.612;8.822;2023-06-22T14:20:19;16.13;;;4.38;;
66603;SDS011;53460;39.612;8.822;2023-06-22T14:22:45;14.88;;;4.10;;
66603;SDS011;53460;39.612;8.822;2023-06-22T14:25:10;10.63;;;4.65;;
66603;SDS011;53460;39.612;8.822;2023-06-22T14:27:36;12.07;;;4.03;;
66603;SDS011;53460;39.612;8.822;2023-06-22T14:30:01;17.02;;;4.63;;
66603;SDS011;53460;39.612;8.822;2023-06-22T14:32:30;16.88;;;4.70;;
66603;SDS011;53460;39.612;8.822;2023-06-22T14:34:55;9.45;;;3.97;;
66603;SDS011;53460;39.612;8.822;2023-06-22T14:37:21;16.88;;;4.07;;
66603;SDS011;53460;39.612;8.822;2023-06-22T14:39:46;13.60;;;4.07;;
66603;SDS011;53460;39.612;8.822;2023-06-22T14:42:12;13.88;;;4.10;;
66603;SDS011;53460;39.612;8.822;2023-06-22T14:44:37;10.32;;;3.85;;
66603;SDS011;53460;39.612;8.822;2023-06-22T14:47:03;11.50;;;4.10;;
66603;SDS011;53460;39.612;8.822;2023-06-22T14:49:28;17.92;;;4.05;;
66603;SDS011;53460;39.612;8.822;2023-06-22T14:51:54;12.73;;;4.13;;
66603;SDS011;53460;39.612;8.822;2023-06-22T14:54:19;12.35;;;4.00;;
66603;SDS011;53460;39.612;8.822;2023-06-22T14:56:45;9.80;;;4.05;;
66603;SDS011;53460;39.612;8.822;2023-06-22T14:59:10;18.77;;;4.25;;
66603;SDS011;53460;39.612;8.822;2023-06-22T15:01:36;11.75;;;4.32;;
66603;SDS011;53460;39.612;8.822;2023-06-22T15:04:02;16.30;;;3.70;;
66603;SDS011;53460;39.612;8.822;2023-06-22T15:06:27;10.70;;;3.60;;
66603;SDS011;53460;39.612;8.822;2023-06-22T15:08:53;12.80;;;3.88;;
66603;SDS011;53460;39.612;8.822;2023-06-22T15:11:18;9.75;;;4.03;;
66603;SDS011;53460;39.612;8.822;2023-06-22T15:13:44;23.13;;;4.35;;
66603;SDS011;53460;39.612;8.822;2023-06-22T15:16:09;10.25;;;4.82;;
66603;SDS011;53460;39.612;8.822;2023-06-22T15:18:35;8.23;;;3.50;;
66603;SDS011;53460;39.612;8.822;2023-06-22T15:21:01;10.63;;;3.90;;
66603;SDS011;53460;39.612;8.822;2023-06-22T15:23:30;10.80;;;3.50;;
66603;SDS011;53460;39.612;8.822;2023-06-22T15:25:56;12.82;;;3.78;;
66603;SDS011;53460;39.612;8.822;2023-06-22T15:28:22;12.70;;;3.85;;
66603;SDS011;53460;39.612;8.822;2023-06-22T15:30:48;12.27;;;4.22;;
66603;SDS011;53460;39.612;8.822;2023-06-22T15:33:14;10.10;;;3.85;;
66603;SDS011;53460;39.612;8.822;2023-06-22T15:35:39;11.27;;;4.10;;
66603;SDS011;53460;39.612;8.822;2023-06-22T15:38:05;14.43;;;4.30;;
66603;SDS011;53460;39.612;8.822;2023-06-22T15:40:30;16.63;;;3.83;;
66603;SDS011;53460;39.612;8.822;2023-06-22T15:42:56;12.30;;;3.97;;
66603;SDS011;53460;39.612;8.822;2023-06-22T15:45:21;12.90;;;4.22;;
66603;SDS011;53460;39.612;8.822;2023-06-22T15:47:47;9.05;;;3.88;;
66603;SDS011;53460;39.612;8.822;2023-06-22T15:50:12;8.25;;;3.33;;
66603;SDS011;53460;39.612;8.822;2023-06-22T15:52:39;13.82;;;4.07;;
66603;SDS011;53460;39.612;8.822;2023-06-22T15:55:04;14.48;;;4.00;;
66603;SDS011;53460;39.612;8.822;2023-06-22T15:57:30;15.00;;;3.75;;
66603;SDS011;53460;39.612;8.822;2023-06-22T15:59:56;19.75;;;4.18;;
66603;SDS011;53460;39.612;8.822;2023-06-22T16:02:21;17.75;;;4.28;;
66603;SDS011;53460;39.612;8.822;2023-06-22T16:04:47;12.05;;;3.95;;
66603;SDS011;53460;39.612;8.822;2023-06-22T16:07:12;13.88;;;3.65;;
66603;SDS011;53460;39.612;8.822;2023-06-22T16:09:38;13.45;;;4.13;;
66603;SDS011;53460;39.612;8.822;2023-06-22T16:12:04;15.43;;;4.40;;
66603;SDS011;53460;39.612;8.822;2023-06-22T16:14:30;18.50;;;4.35;;
66603;SDS011;53460;39.612;8.822;2023-06-22T16:16:56;8.63;;;3.70;;
66603;SDS011;53460;39.612;8.822;2023-06-22T16:19:21;14.90;;;3.72;;
66603;SDS011;53460;39.612;8.822;2023-06-22T16:21:47;12.85;;;3.80;;
66603;SDS011;53460;39.612;8.822;2023-06-22T16:24:12;9.10;;;4.15;;
66603;SDS011;53460;39.612;8.822;2023-06-22T16:26:38;9.68;;;4.45;;
66603;SDS011;53460;39.612;8.822;2023-06-22T16:29:05;10.88;;;4.47;;
66603;SDS011;53460;39.612;8.822;2023-06-22T16:31:30;13.00;;;3.45;;
66603;SDS011;53460;39.612;8.822;2023-06-22T16:33:56;16.67;;;3.83;;
66603;SDS011;53460;39.612;8.822;2023-06-22T16:36:22;9.20;;;3.53;;
66603;SDS011;53460;39.612;8.822;2023-06-22T16:38:47;14.52;;;4.22;;
66603;SDS011;53460;39.612;8.822;2023-06-22T16:41:13;13.25;;;4.00;;
66603;SDS011;53460;39.612;8.822;2023-06-22T16:43:40;8.45;;;3.83;;
66603;SDS011;53460;39.612;8.822;2023-06-22T16:46:05;14.82;;;3.90;;
66603;SDS011;53460;39.612;8.822;2023-06-22T16:48:31;13.80;;;4.88;;
66603;SDS011;53460;39.612;8.822;2023-06-22T16:50:56;16.02;;;4.43;;
66603;SDS011;53460;39.612;8.822;2023-06-22T16:53:22;14.57;;;4.18;;
66603;SDS011;53460;39.612;8.822;2023-06-22T16:55:50;14.05;;;4.18;;
66603;SDS011;53460;39.612;8.822;2023-06-22T16:58:17;12.95;;;3.78;;
66603;SDS011;53460;39.612;8.822;2023-06-22T17:00:44;10.52;;;4.07;;
66603;SDS011;53460;39.612;8.822;2023-06-22T17:03:11;13.77;;;4.20;;
66603;SDS011;53460;39.612;8.822;2023-06-22T17:05:40;14.57;;;4.35;;
66603;SDS011;53460;39.612;8.822;2023-06-22T17:08:05;13.25;;;3.80;;
66603;SDS011;53460;39.612;8.822;2023-06-22T17:10:32;15.85;;;4.65;;
66603;SDS011;53460;39.612;8.822;2023-06-22T17:12:58;14.10;;;4.63;;
66603;SDS011;53460;39.612;8.822;2023-06-22T17:15:24;22.00;;;4.60;;
66603;SDS011;53460;39.612;8.822;2023-06-22T17:17:50;16.65;;;4.90;;
66603;SDS011;53460;39.612;8.822;2023-06-22T17:20:15;27.33;;;5.32;;
66603;SDS011;53460;39.612;8.822;2023-06-22T17:22:43;10.55;;;4.53;;
66603;SDS011;53460;39.612;8.822;2023-06-22T17:25:09;13.35;;;4.55;;
66603;SDS011;53460;39.612;8.822;2023-06-22T17:27:35;15.45;;;5.25;;
66603;SDS011;53460;39.612;8.822;2023-06-22T17:30:07;13.88;;;5.65;;
66603;SDS011;53460;39.612;8.822;2023-06-22T17:32:33;14.00;;;5.55;;
66603;SDS011;53460;39.612;8.822;2023-06-22T17:34:59;15.20;;;5.20;;
66603;SDS011;53460;39.612;8.822;2023-06-22T17:37:25;15.52;;;4.93;;
66603;SDS011;53460;39.612;8.822;2023-06-22T17:39:52;14.93;;;4.90;;
66603;SDS011;53460;39.612;8.822;2023-06-22T17:42:21;14.90;;;5.18;;
66603;SDS011;53460;39.612;8.822;2023-06-22T17:44:48;11.50;;;4.78;;
66603;SDS011;53460;39.612;8.822;2023-06-22T17:47:13;13.98;;;5.10;;
66603;SDS011;53460;39.612;8.822;2023-06-22T17:49:39;13.80;;;4.75;;
66603;SDS011;53460;39.612;8.822;2023-06-22T17:52:05;11.70;;;4.90;;
66603;SDS011;53460;39.612;8.822;2023-06-22T17:54:31;15.75;;;5.30;;
66603;SDS011;53460;39.612;8.822;2023-06-22T17:56:56;13.48;;;4.78;;
66603;SDS011;53460;39.612;8.822;2023-06-22T17:59:23;12.45;;;4.82;;
66603;SDS011;53460;39.612;8.822;2023-06-22T18:01:48;15.68;;;5.47;;
66603;SDS011;53460;39.612;8.822;2023-06-22T18:04:15;14.07;;;5.50;;
66603;SDS011;53460;39.612;8.822;2023-06-22T18:06:41;17.58;;;5.03;;
66603;SDS011;53460;39.612;8.822;2023-06-22T18:09:07;13.35;;;5.50;;
66603;SDS011;53460;39.612;8.822;2023-06-22T18:11:43;15.10;;;5.38;;
66603;SDS011;53460;39.612;8.822;2023-06-22T18:14:09;11.75;;;5.15;;
66603;SDS011;53460;39.612;8.822;2023-06-22T18:16:35;14.55;;;5.80;;
66603;SDS011;53460;39.612;8.822;2023-06-22T18:19:01;14.20;;;5.32;;
66603;SDS011;53460;39.612;8.822;2023-06-22T18:21:27;20.05;;;6.85;;
66603;SDS011;53460;39.612;8.822;2023-06-22T18:23:53;20.58;;;6.20;;
66603;SDS011;53460;39.612;8.822;2023-06-22T18:26:21;14.90;;;5.78;;
66603;SDS011;53460;39.612;8.822;2023-06-22T18:28:54;17.55;;;5.38;;
66603;SDS011;53460;39.612;8.822;2023-06-22T18:31:21;16.33;;;5.57;;
66603;SDS011;53460;39.612;8.822;2023-06-22T18:33:48;18.92;;;6.05;;
66603;SDS011;53460;39.612;8.822;2023-06-22T18:36:14;15.00;;;5.28;;
66603;SDS011;53460;39.612;8.822;2023-06-22T18:38:41;16.88;;;5.47;;
66603;SDS011;53460;39.612;8.822;2023-06-22T18:41:14;22.95;;;6.47;;
66603;SDS011;53460;39.612;8.822;2023-06-22T18:43:44;19.60;;;6.82;;
66603;SDS011;53460;39.612;8.822;2023-06-22T18:49:12;22.48;;;6.40;;
66603;SDS011;53460;39.612;8.822;2023-06-22T18:52:02;16.05;;;6.18;;
66603;SDS011;53460;39.612;8.822;2023-06-22T18:54:47;15.07;;;6.13;;
66603;SDS011;53460;39.612;8.822;2023-06-22T18:57:25;20.77;;;6.60;;
66603;SDS011;53460;39.612;8.822;2023-06-22T19:15:46;21.63;;;6.90;;
66603;SDS011;53460;39.612;8.822;2023-06-22T19:18:19;18.67;;;6.70;;
66603;SDS011;53460;39.612;8.822;2023-06-22T19:26:11;19.98;;;6.90;;
66603;SDS011;53460;39.612;8.822;2023-06-22T19:31:12;17.33;;;6.78;;
66603;SDS011;53460;39.612;8.822;2023-06-22T19:33:38;17.95;;;6.30;;
66603;SDS011;53460;39.612;8.822;2023-06-22T19:36:04;19.67;;;6.80;;
66603;SDS011;53460;39.612;8.822;2023-06-22T19:38:29;23.83;;;6.10;;
66603;SDS011;53460;39.612;8.822;2023-06-22T19:40:59;20.67;;;6.95;;
66603;SDS011;53460;39.612;8.822;2023-06-22T19:43:28;15.82;;;5.30;;
66603;SDS011;53460;39.612;8.822;2023-06-22T19:45:54;17.35;;;6.82;;
66603;SDS011;53460;39.612;8.822;2023-06-22T19:48:23;20.85;;;7.22;;
66603;SDS011;53460;39.612;8.822;2023-06-22T19:50:49;21.83;;;7.70;;
66603;SDS011;53460;39.612;8.822;2023-06-22T19:53:15;16.60;;;6.60;;
66603;SDS011;53460;39.612;8.822;2023-06-22T19:55:45;16.92;;;6.35;;
66603;SDS011;53460;39.612;8.822;2023-06-22T19:58:11;20.85;;;6.45;;
66603;SDS011;53460;39.612;8.822;2023-06-22T20:00:37;17.50;;;7.32;;
66603;SDS011;53460;39.612;8.822;2023-06-22T20:03:06;16.48;;;6.35;;
66603;SDS011;53460;39.612;8.822;2023-06-22T20:05:33;16.98;;;6.72;;
66603;SDS011;53460;39.612;8.822;2023-06-22T20:10:32;18.73;;;6.25;;
66603;SDS011;53460;39.612;8.822;2023-06-22T20:13:01;17.67;;;6.70;;
66603;SDS011;53460;39.612;8.822;2023-06-22T20:15:38;18.23;;;6.30;;
66603;SDS011;53460;39.612;8.822;2023-06-22T20:18:05;20.02;;;7.35;;
66603;SDS011;53460;39.612;8.822;2023-06-22T20:20:34;20.92;;;7.00;;
66603;SDS011;53460;39.612;8.822;2023-06-22T20:23:00;18.33;;;7.10;;
66603;SDS011;53460;39.612;8.822;2023-06-22T20:25:27;20.92;;;7.35;;
66603;SDS011;53460;39.612;8.822;2023-06-22T20:27:54;16.20;;;6.43;;
66603;SDS011;53460;39.612;8.822;2023-06-22T20:30:25;17.98;;;6.90;;
66603;SDS011;53460;39.612;8.822;2023-06-22T20:32:52;20.95;;;6.68;;
66603;SDS011;53460;39.612;8.822;2023-06-22T20:35:18;21.17;;;7.63;;
66603;SDS011;53460;39.612;8.822;2023-06-22T20:37:47;19.60;;;6.13;;
66603;SDS011;53460;39.612;8.822;2023-06-22T20:40:13;23.15;;;7.25;;
66603;SDS011;53460;39.612;8.822;2023-06-22T20:42:39;17.33;;;6.85;;
66603;SDS011;53460;39.612;8.822;2023-06-22T20:45:05;17.05;;;5.82;;
66603;SDS011;53460;39.612;8.822;2023-06-22T20:47:30;19.52;;;6.00;;
66603;SDS011;53460;39.612;8.822;2023-06-22T20:49:56;18.15;;;6.20;;
66603;SDS011;53460;39.612;8.822;2023-06-22T20:52:24;21.30;;;6.63;;
66603;SDS011;53460;39.612;8.822;2023-06-22T20:54:50;21.02;;;7.13;;
66603;SDS011;53460;39.612;8.822;2023-06-22T20:57:17;19.92;;;6.72;;
66603;SDS011;53460;39.612;8.822;2023-06-22T20:59:43;18.60;;;6.88;;
66603;SDS011;53460;39.612;8.822;2023-06-22T21:02:08;17.10;;;6.75;;
66603;SDS011;53460;39.612;8.822;2023-06-22T21:04:34;17.67;;;6.43;;
66603;SDS011;53460;39.612;8.822;2023-06-22T21:06:59;18.58;;;6.57;;
66603;SDS011;53460;39.612;8.822;2023-06-22T21:09:24;20.60;;;6.55;;
66603;SDS011;53460;39.612;8.822;2023-06-22T21:11:50;19.13;;;6.75;;
66603;SDS011;53460;39.612;8.822;2023-06-22T21:14:15;24.40;;;6.88;;
66603;SDS011;53460;39.612;8.822;2023-06-22T21:16:41;21.83;;;7.07;;
66603;SDS011;53460;39.612;8.822;2023-06-22T21:19:06;23.58;;;7.15;;
66603;SDS011;53460;39.612;8.822;2023-06-22T21:21:32;21.50;;;6.43;;
66603;SDS011;53460;39.612;8.822;2023-06-22T21:23:59;17.38;;;6.20;;
66603;SDS011;53460;39.612;8.822;2023-06-22T21:26:25;16.75;;;6.05;;
66603;SDS011;53460;39.612;8.822;2023-06-22T21:28:50;24.05;;;7.53;;
66603;SDS011;53460;39.612;8.822;2023-06-22T21:31:17;16.75;;;7.22;;